sensor_id;sensor_type;location;lat;lon;timestamp;P1;durP1;ratioP1;P2;durP2;ratioP2
36371;SDS011;22398;51.346;12.372;2023-03-11T00:02:43;2.05;;;1.13;;
36371;SDS011;22398;51.346;12.372;2023-03-11T00:07:48;2.45;;;1.20;;
36371;SDS011;22398;51.346;12.372;2023-03-11T00:12:52;2.27;;;0.97;;
36371;SDS011;22398;51.346;12.372;2023-03-11T00:17:55;1.45;;;0.98;;
36371;SDS011;22398;51.346;12.372;2023-03-11T00:23:01;2.92;;;1.63;;
36371;SDS011;22398;51.346;12.372;2023-03-11T00:28:05;2.45;;;1.42;;
36371;SDS011;22398;51.346;12.372;2023-03-11T00:33:11;3.72;;;2.35;;
36371;SDS011;22398;51.346;12.372;2023-03-11T00:38:17;2.77;;;1.70;;
36371;SDS011;22398;51.346;12.372;2023-03-11T00:43:20;4.28;;;2.33;;
36371;SDS011;22398;51.346;12.372;2023-03-11T00:48:24;5.07;;;2.30;;
36371;SDS011;22398;51.346;12.372;2023-03-11T00:53:29;4.95;;;2.78;;
36371;SDS011;22398;51.346;12.372;2023-03-11T00:58:32;9.93;;;3.77;;
36371;SDS011;22398;51.346;12.372;2023-03-11T01:03:36;6.60;;;3.88;;
36371;SDS011;22398;51.346;12.372;2023-03-11T01:08:41;9.95;;;4.68;;
36371;SDS011;22398;51.346;12.372;2023-03-11T01:13:45;10.20;;;4.67;;
36371;SDS011;22398;51.346;12.372;2023-03-11T01:18:48;18.52;;;7.30;;
36371;SDS011;22398;51.346;12.372;2023-03-11T01:23:53;18.90;;;6.55;;
36371;SDS011;22398;51.346;12.372;2023-03-11T01:28:56;22.57;;;9.00;;
36371;SDS011;22398;51.346;12.372;2023-03-11T01:33:59;24.05;;;4.97;;
36371;SDS011;22398;51.346;12.372;2023-03-11T01:39:04;9.73;;;4.90;;
36371;SDS011;22398;51.346;12.372;2023-03-11T01:44:09;22.20;;;5.97;;
36371;SDS011;22398;51.346;12.372;2023-03-11T01:49:13;16.08;;;6.18;;
36371;SDS011;22398;51.346;12.372;2023-03-11T01:54:19;20.70;;;5.88;;
36371;SDS011;22398;51.346;12.372;2023-03-11T01:59:26;18.48;;;5.50;;
36371;SDS011;22398;51.346;12.372;2023-03-11T02:04:33;14.70;;;5.45;;
36371;SDS011;22398;51.346;12.372;2023-03-11T02:09:39;29.80;;;11.05;;
36371;SDS011;22398;51.346;12.372;2023-03-11T02:14:43;21.38;;;7.20;;
36371;SDS011;22398;51.346;12.372;2023-03-11T02:19:55;19.63;;;6.65;;
36371;SDS011;22398;51.346;12.372;2023-03-11T02:25:10;30.75;;;11.45;;
36371;SDS011;22398;51.346;12.372;2023-03-11T02:30:24;20.80;;;11.33;;
36371;SDS011;22398;51.346;12.372;2023-03-11T02:35:30;16.98;;;6.60;;
36371;SDS011;22398;51.346;12.372;2023-03-11T02:40:35;24.60;;;8.13;;
36371;SDS011;22398;51.346;12.372;2023-03-11T02:45:44;27.00;;;9.45;;
36371;SDS011;22398;51.346;12.372;2023-03-11T02:50:50;19.63;;;8.68;;
36371;SDS011;22398;51.346;12.372;2023-03-11T02:55:54;18.23;;;8.48;;
36371;SDS011;22398;51.346;12.372;2023-03-11T03:00:59;19.83;;;7.93;;
36371;SDS011;22398;51.346;12.372;2023-03-11T03:06:04;13.45;;;5.57;;
36371;SDS011;22398;51.346;12.372;2023-03-11T03:11:08;25.02;;;9.25;;
36371;SDS011;22398;51.346;12.372;2023-03-11T03:16:14;23.95;;;8.65;;
36371;SDS011;22398;51.346;12.372;2023-03-11T03:21:18;20.77;;;7.60;;
36371;SDS011;22398;51.346;12.372;2023-03-11T03:26:22;24.45;;;11.27;;
36371;SDS011;22398;51.346;12.372;2023-03-11T03:31:27;34.40;;;12.00;;
36371;SDS011;22398;51.346;12.372;2023-03-11T03:36:32;34.97;;;14.35;;
36371;SDS011;22398;51.346;12.372;2023-03-11T03:41:38;40.67;;;14.55;;
36371;SDS011;22398;51.346;12.372;2023-03-11T03:46:43;23.75;;;9.30;;
36371;SDS011;22398;51.346;12.372;2023-03-11T03:51:47;38.08;;;16.42;;
36371;SDS011;22398;51.346;12.372;2023-03-11T03:57:00;37.00;;;13.77;;
36371;SDS011;22398;51.346;12.372;2023-03-11T04:02:07;26.08;;;10.48;;
36371;SDS011;22398;51.346;12.372;2023-03-11T04:07:11;17.75;;;8.05;;
36371;SDS011;22398;51.346;12.372;2023-03-11T04:12:14;16.38;;;7.47;;
36371;SDS011;22398;51.346;12.372;2023-03-11T04:17:21;17.73;;;8.35;;
36371;SDS011;22398;51.346;12.372;2023-03-11T04:22:27;24.35;;;10.45;;
36371;SDS011;22398;51.346;12.372;2023-03-11T04:27:31;20.35;;;8.32;;
36371;SDS011;22398;51.346;12.372;2023-03-11T04:32:38;18.55;;;7.10;;
36371;SDS011;22398;51.346;12.372;2023-03-11T04:37:41;14.80;;;7.20;;
36371;SDS011;22398;51.346;12.372;2023-03-11T04:42:45;16.98;;;7.80;;
36371;SDS011;22398;51.346;12.372;2023-03-11T04:47:52;30.17;;;10.10;;
36371;SDS011;22398;51.346;12.372;2023-03-11T04:52:55;14.85;;;6.25;;
36371;SDS011;22398;51.346;12.372;2023-03-11T04:57:59;18.88;;;7.22;;
36371;SDS011;22398;51.346;12.372;2023-03-11T05:03:05;23.50;;;8.73;;
36371;SDS011;22398;51.346;12.372;2023-03-11T05:08:08;13.50;;;6.10;;
36371;SDS011;22398;51.346;12.372;2023-03-11T05:13:14;25.08;;;9.00;;
36371;SDS011;22398;51.346;12.372;2023-03-11T05:18:18;20.40;;;8.85;;
36371;SDS011;22398;51.346;12.372;2023-03-11T05:23:23;28.75;;;13.20;;
36371;SDS011;22398;51.346;12.372;2023-03-11T05:28:27;33.13;;;12.25;;
36371;SDS011;22398;51.346;12.372;2023-03-11T05:33:32;27.25;;;10.18;;
36371;SDS011;22398;51.346;12.372;2023-03-11T05:38:38;29.25;;;11.68;;
36371;SDS011;22398;51.346;12.372;2023-03-11T05:43:41;24.45;;;10.70;;
36371;SDS011;22398;51.346;12.372;2023-03-11T05:48:46;24.17;;;11.10;;
36371;SDS011;22398;51.346;12.372;2023-03-11T05:53:50;28.40;;;10.53;;
36371;SDS011;22398;51.346;12.372;2023-03-11T05:59:02;23.45;;;10.43;;
36371;SDS011;22398;51.346;12.372;2023-03-11T06:04:09;21.73;;;10.20;;
36371;SDS011;22398;51.346;12.372;2023-03-11T06:09:14;20.55;;;8.20;;
36371;SDS011;22398;51.346;12.372;2023-03-11T06:14:19;26.88;;;11.90;;
36371;SDS011;22398;51.346;12.372;2023-03-11T06:19:25;16.08;;;7.75;;
36371;SDS011;22398;51.346;12.372;2023-03-11T06:24:29;26.60;;;8.95;;
36371;SDS011;22398;51.346;12.372;2023-03-11T06:29:33;12.50;;;5.70;;
36371;SDS011;22398;51.346;12.372;2023-03-11T06:34:39;19.20;;;7.47;;
36371;SDS011;22398;51.346;12.372;2023-03-11T06:39:44;18.83;;;7.97;;
36371;SDS011;22398;51.346;12.372;2023-03-11T06:44:53;19.67;;;7.18;;
36371;SDS011;22398;51.346;12.372;2023-03-11T06:49:59;23.58;;;7.78;;
36371;SDS011;22398;51.346;12.372;2023-03-11T06:55:07;21.15;;;7.15;;
36371;SDS011;22398;51.346;12.372;2023-03-11T07:00:11;12.52;;;5.85;;
36371;SDS011;22398;51.346;12.372;2023-03-11T07:05:22;12.45;;;5.85;;
36371;SDS011;22398;51.346;12.372;2023-03-11T07:10:30;15.73;;;6.07;;
36371;SDS011;22398;51.346;12.372;2023-03-11T07:15:34;17.63;;;6.70;;
36371;SDS011;22398;51.346;12.372;2023-03-11T07:20:39;20.75;;;7.28;;
36371;SDS011;22398;51.346;12.372;2023-03-11T07:25:44;14.03;;;6.93;;
36371;SDS011;22398;51.346;12.372;2023-03-11T07:30:47;12.38;;;4.80;;
36371;SDS011;22398;51.346;12.372;2023-03-11T07:35:52;21.73;;;6.80;;
36371;SDS011;22398;51.346;12.372;2023-03-11T07:40:56;21.33;;;9.43;;
36371;SDS011;22398;51.346;12.372;2023-03-11T07:46:01;14.77;;;7.00;;
36371;SDS011;22398;51.346;12.372;2023-03-11T07:51:08;13.02;;;6.22;;
36371;SDS011;22398;51.346;12.372;2023-03-11T07:56:14;12.85;;;5.78;;
36371;SDS011;22398;51.346;12.372;2023-03-11T08:01:20;18.25;;;6.80;;
36371;SDS011;22398;51.346;12.372;2023-03-11T08:06:27;20.92;;;9.52;;
36371;SDS011;22398;51.346;12.372;2023-03-11T08:11:32;18.42;;;6.65;;
36371;SDS011;22398;51.346;12.372;2023-03-11T08:16:37;14.77;;;7.38;;
36371;SDS011;22398;51.346;12.372;2023-03-11T08:21:43;21.58;;;8.27;;
36371;SDS011;22398;51.346;12.372;2023-03-11T08:26:46;20.53;;;8.47;;
36371;SDS011;22398;51.346;12.372;2023-03-11T08:31:50;19.90;;;7.55;;
36371;SDS011;22398;51.346;12.372;2023-03-11T08:36:55;19.25;;;6.55;;
36371;SDS011;22398;51.346;12.372;2023-03-11T08:41:58;8.87;;;5.77;;
36371;SDS011;22398;51.346;12.372;2023-03-11T08:47:01;8.68;;;4.88;;
36371;SDS011;22398;51.346;12.372;2023-03-11T08:52:06;16.27;;;5.88;;
36371;SDS011;22398;51.346;12.372;2023-03-11T08:57:09;9.73;;;4.90;;
36371;SDS011;22398;51.346;12.372;2023-03-11T09:02:13;11.50;;;5.13;;
36371;SDS011;22398;51.346;12.372;2023-03-11T09:07:18;14.00;;;4.95;;
36371;SDS011;22398;51.346;12.372;2023-03-11T09:12:21;15.73;;;5.45;;
36371;SDS011;22398;51.346;12.372;2023-03-11T09:17:24;10.18;;;4.82;;
36371;SDS011;22398;51.346;12.372;2023-03-11T09:22:29;14.57;;;5.97;;
36371;SDS011;22398;51.346;12.372;2023-03-11T09:27:33;13.10;;;5.57;;
36371;SDS011;22398;51.346;12.372;2023-03-11T09:32:37;9.27;;;4.75;;
36371;SDS011;22398;51.346;12.372;2023-03-11T09:37:42;12.70;;;5.38;;
36371;SDS011;22398;51.346;12.372;2023-03-11T09:42:47;12.83;;;5.70;;
36371;SDS011;22398;51.346;12.372;2023-03-11T09:48:01;9.07;;;5.18;;
36371;SDS011;22398;51.346;12.372;2023-03-11T09:53:24;9.70;;;5.22;;
36371;SDS011;22398;51.346;12.372;2023-03-11T09:58:36;13.95;;;6.57;;
36371;SDS011;22398;51.346;12.372;2023-03-11T10:03:42;12.20;;;6.40;;
36371;SDS011;22398;51.346;12.372;2023-03-11T10:08:49;11.75;;;5.22;;
36371;SDS011;22398;51.346;12.372;2023-03-11T10:14:01;15.35;;;5.82;;
36371;SDS011;22398;51.346;12.372;2023-03-11T10:24:30;10.68;;;6.25;;
36371;SDS011;22398;51.346;12.372;2023-03-11T10:29:45;12.90;;;5.60;;
36371;SDS011;22398;51.346;12.372;2023-03-11T10:34:56;12.10;;;4.80;;
36371;SDS011;22398;51.346;12.372;2023-03-11T10:40:15;12.50;;;6.32;;
36371;SDS011;22398;51.346;12.372;2023-03-11T10:45:24;8.77;;;5.38;;
36371;SDS011;22398;51.346;12.372;2023-03-11T10:50:30;16.05;;;8.05;;
36371;SDS011;22398;51.346;12.372;2023-03-11T10:55:44;17.40;;;6.25;;
36371;SDS011;22398;51.346;12.372;2023-03-11T11:01:04;14.35;;;6.40;;
36371;SDS011;22398;51.346;12.372;2023-03-11T11:06:18;12.32;;;6.60;;
36371;SDS011;22398;51.346;12.372;2023-03-11T11:11:27;13.50;;;7.40;;
36371;SDS011;22398;51.346;12.372;2023-03-11T11:16:30;12.87;;;7.17;;
36371;SDS011;22398;51.346;12.372;2023-03-11T11:21:36;14.75;;;8.38;;
36371;SDS011;22398;51.346;12.372;2023-03-11T11:26:42;13.13;;;5.65;;
36371;SDS011;22398;51.346;12.372;2023-03-11T11:32:19;13.05;;;7.40;;
36371;SDS011;22398;51.346;12.372;2023-03-11T11:37:26;13.95;;;5.95;;
36371;SDS011;22398;51.346;12.372;2023-03-11T11:42:34;12.02;;;6.05;;
36371;SDS011;22398;51.346;12.372;2023-03-11T11:47:40;10.90;;;6.70;;
36371;SDS011;22398;51.346;12.372;2023-03-11T11:52:47;11.63;;;6.30;;
36371;SDS011;22398;51.346;12.372;2023-03-11T11:57:55;14.35;;;6.18;;
36371;SDS011;22398;51.346;12.372;2023-03-11T12:03:07;14.95;;;5.43;;
36371;SDS011;22398;51.346;12.372;2023-03-11T12:08:35;10.18;;;5.10;;
36371;SDS011;22398;51.346;12.372;2023-03-11T12:13:48;11.57;;;5.40;;
36371;SDS011;22398;51.346;12.372;2023-03-11T12:19:01;10.52;;;5.85;;
36371;SDS011;22398;51.346;12.372;2023-03-11T12:24:12;9.73;;;5.03;;
36371;SDS011;22398;51.346;12.372;2023-03-11T12:29:28;10.50;;;4.72;;
36371;SDS011;22398;51.346;12.372;2023-03-11T12:34:34;10.02;;;5.78;;
36371;SDS011;22398;51.346;12.372;2023-03-11T12:39:38;7.22;;;4.45;;
36371;SDS011;22398;51.346;12.372;2023-03-11T12:44:43;7.95;;;4.63;;
36371;SDS011;22398;51.346;12.372;2023-03-11T12:49:48;7.20;;;4.43;;
36371;SDS011;22398;51.346;12.372;2023-03-11T13:00:49;9.20;;;4.75;;
36371;SDS011;22398;51.346;12.372;2023-03-11T13:06:11;10.88;;;5.10;;
36371;SDS011;22398;51.346;12.372;2023-03-11T13:11:34;10.30;;;4.95;;
36371;SDS011;22398;51.346;12.372;2023-03-11T13:16:45;9.90;;;5.57;;
36371;SDS011;22398;51.346;12.372;2023-03-11T13:21:49;15.52;;;6.57;;
36371;SDS011;22398;51.346;12.372;2023-03-11T13:26:53;12.40;;;5.57;;
36371;SDS011;22398;51.346;12.372;2023-03-11T13:32:11;11.73;;;5.10;;
36371;SDS011;22398;51.346;12.372;2023-03-11T13:37:29;10.27;;;5.32;;
36371;SDS011;22398;51.346;12.372;2023-03-11T13:42:45;8.13;;;4.47;;
36371;SDS011;22398;51.346;12.372;2023-03-11T13:47:52;8.43;;;4.50;;
36371;SDS011;22398;51.346;12.372;2023-03-11T13:52:59;7.57;;;4.15;;
36371;SDS011;22398;51.346;12.372;2023-03-11T13:58:13;4.50;;;3.13;;
36371;SDS011;22398;51.346;12.372;2023-03-11T14:03:20;6.72;;;3.20;;
36371;SDS011;22398;51.346;12.372;2023-03-11T14:08:26;7.80;;;3.83;;
36371;SDS011;22398;51.346;12.372;2023-03-11T14:13:39;13.40;;;3.30;;
36371;SDS011;22398;51.346;12.372;2023-03-11T14:18:45;7.25;;;3.17;;
36371;SDS011;22398;51.346;12.372;2023-03-11T14:23:51;3.78;;;2.60;;
36371;SDS011;22398;51.346;12.372;2023-03-11T14:28:57;5.70;;;3.22;;
36371;SDS011;22398;51.346;12.372;2023-03-11T14:34:10;5.13;;;3.17;;
36371;SDS011;22398;51.346;12.372;2023-03-11T14:39:26;3.15;;;2.35;;
36371;SDS011;22398;51.346;12.372;2023-03-11T14:44:32;3.33;;;2.22;;
36371;SDS011;22398;51.346;12.372;2023-03-11T14:54:42;7.28;;;2.35;;
36371;SDS011;22398;51.346;12.372;2023-03-11T14:59:47;3.78;;;1.90;;
36371;SDS011;22398;51.346;12.372;2023-03-11T15:04:54;8.65;;;2.28;;
36371;SDS011;22398;51.346;12.372;2023-03-11T15:10:01;6.38;;;2.03;;
36371;SDS011;22398;51.346;12.372;2023-03-11T15:20:30;4.60;;;1.70;;
36371;SDS011;22398;51.346;12.372;2023-03-11T15:25:36;2.60;;;1.10;;
36371;SDS011;22398;51.346;12.372;2023-03-11T15:30:41;2.83;;;1.35;;
36371;SDS011;22398;51.346;12.372;2023-03-11T15:35:46;3.53;;;2.08;;
36371;SDS011;22398;51.346;12.372;2023-03-11T15:40:52;3.88;;;1.45;;
36371;SDS011;22398;51.346;12.372;2023-03-11T15:45:59;4.93;;;1.77;;
36371;SDS011;22398;51.346;12.372;2023-03-11T15:51:15;3.97;;;1.92;;
36371;SDS011;22398;51.346;12.372;2023-03-11T15:56:22;6.18;;;1.73;;
36371;SDS011;22398;51.346;12.372;2023-03-11T16:01:26;4.60;;;1.92;;
36371;SDS011;22398;51.346;12.372;2023-03-11T16:06:33;3.13;;;1.67;;
36371;SDS011;22398;51.346;12.372;2023-03-11T16:11:37;5.63;;;2.13;;
36371;SDS011;22398;51.346;12.372;2023-03-11T16:16:41;5.28;;;2.00;;
36371;SDS011;22398;51.346;12.372;2023-03-11T16:21:46;4.35;;;2.40;;
36371;SDS011;22398;51.346;12.372;2023-03-11T16:26:51;4.93;;;1.60;;
36371;SDS011;22398;51.346;12.372;2023-03-11T16:31:55;3.92;;;2.10;;
36371;SDS011;22398;51.346;12.372;2023-03-11T16:37:00;3.22;;;1.60;;
36371;SDS011;22398;51.346;12.372;2023-03-11T16:42:04;2.67;;;1.50;;
36371;SDS011;22398;51.346;12.372;2023-03-11T16:47:08;5.18;;;1.70;;
36371;SDS011;22398;51.346;12.372;2023-03-11T16:52:12;5.60;;;1.95;;
36371;SDS011;22398;51.346;12.372;2023-03-11T16:57:21;4.20;;;1.70;;
36371;SDS011;22398;51.346;12.372;2023-03-11T17:02:24;3.60;;;2.10;;
36371;SDS011;22398;51.346;12.372;2023-03-11T17:07:29;3.67;;;1.40;;
36371;SDS011;22398;51.346;12.372;2023-03-11T17:12:33;10.75;;;2.10;;
36371;SDS011;22398;51.346;12.372;2023-03-11T17:17:37;7.45;;;2.30;;
36371;SDS011;22398;51.346;12.372;2023-03-11T17:22:42;6.28;;;1.77;;
36371;SDS011;22398;51.346;12.372;2023-03-11T17:27:46;5.53;;;2.17;;
36371;SDS011;22398;51.346;12.372;2023-03-11T17:32:50;13.57;;;3.20;;
36371;SDS011;22398;51.346;12.372;2023-03-11T17:37:56;12.07;;;3.35;;
36371;SDS011;22398;51.346;12.372;2023-03-11T17:42:59;5.10;;;2.35;;
36371;SDS011;22398;51.346;12.372;2023-03-11T17:48:03;24.67;;;4.20;;
36371;SDS011;22398;51.346;12.372;2023-03-11T17:53:08;11.73;;;3.20;;
36371;SDS011;22398;51.346;12.372;2023-03-11T17:58:11;12.40;;;3.10;;
36371;SDS011;22398;51.346;12.372;2023-03-11T18:03:15;4.90;;;2.42;;
36371;SDS011;22398;51.346;12.372;2023-03-11T18:08:20;4.40;;;2.28;;
36371;SDS011;22398;51.346;12.372;2023-03-11T18:13:23;10.48;;;3.25;;
36371;SDS011;22398;51.346;12.372;2023-03-11T18:18:28;6.07;;;2.58;;
36371;SDS011;22398;51.346;12.372;2023-03-11T18:23:33;13.75;;;4.07;;
36371;SDS011;22398;51.346;12.372;2023-03-11T18:28:37;12.52;;;3.47;;
36371;SDS011;22398;51.346;12.372;2023-03-11T18:33:45;9.48;;;3.42;;
36371;SDS011;22398;51.346;12.372;2023-03-11T18:38:52;19.42;;;3.72;;
36371;SDS011;22398;51.346;12.372;2023-03-11T18:43:57;8.70;;;3.72;;
36371;SDS011;22398;51.346;12.372;2023-03-11T18:49:02;9.25;;;3.80;;
36371;SDS011;22398;51.346;12.372;2023-03-11T18:54:07;13.85;;;4.32;;
36371;SDS011;22398;51.346;12.372;2023-03-11T18:59:12;18.15;;;4.47;;
36371;SDS011;22398;51.346;12.372;2023-03-11T19:04:15;9.55;;;5.03;;
36371;SDS011;22398;51.346;12.372;2023-03-11T19:09:19;13.15;;;5.35;;
36371;SDS011;22398;51.346;12.372;2023-03-11T19:14:23;17.20;;;5.43;;
36371;SDS011;22398;51.346;12.372;2023-03-11T19:19:26;16.60;;;5.70;;
36371;SDS011;22398;51.346;12.372;2023-03-11T19:24:33;19.75;;;5.80;;
36371;SDS011;22398;51.346;12.372;2023-03-11T19:29:36;7.13;;;4.07;;
36371;SDS011;22398;51.346;12.372;2023-03-11T19:34:40;23.98;;;4.80;;
36371;SDS011;22398;51.346;12.372;2023-03-11T19:39:45;8.15;;;5.07;;
36371;SDS011;22398;51.346;12.372;2023-03-11T19:44:48;15.60;;;5.90;;
36371;SDS011;22398;51.346;12.372;2023-03-11T19:49:52;17.50;;;5.20;;
36371;SDS011;22398;51.346;12.372;2023-03-11T19:54:57;13.75;;;4.82;;
36371;SDS011;22398;51.346;12.372;2023-03-11T20:00:01;18.23;;;5.60;;
36371;SDS011;22398;51.346;12.372;2023-03-11T20:05:05;11.93;;;4.85;;
36371;SDS011;22398;51.346;12.372;2023-03-11T20:10:11;9.57;;;5.03;;
36371;SDS011;22398;51.346;12.372;2023-03-11T20:15:17;15.88;;;5.10;;
36371;SDS011;22398;51.346;12.372;2023-03-11T20:20:21;9.98;;;4.65;;
36371;SDS011;22398;51.346;12.372;2023-03-11T20:25:26;11.93;;;5.13;;
36371;SDS011;22398;51.346;12.372;2023-03-11T20:30:32;17.00;;;5.50;;
36371;SDS011;22398;51.346;12.372;2023-03-11T20:35:36;17.40;;;6.28;;
36371;SDS011;22398;51.346;12.372;2023-03-11T20:40:43;16.20;;;5.72;;
36371;SDS011;22398;51.346;12.372;2023-03-11T20:45:46;13.13;;;5.05;;
36371;SDS011;22398;51.346;12.372;2023-03-11T20:50:50;13.27;;;6.10;;
36371;SDS011;22398;51.346;12.372;2023-03-11T20:55:55;10.38;;;4.85;;
36371;SDS011;22398;51.346;12.372;2023-03-11T21:00:58;10.00;;;3.13;;
36371;SDS011;22398;51.346;12.372;2023-03-11T21:06:02;14.77;;;4.45;;
36371;SDS011;22398;51.346;12.372;2023-03-11T21:11:07;11.57;;;4.85;;
36371;SDS011;22398;51.346;12.372;2023-03-11T21:16:11;10.13;;;4.25;;
36371;SDS011;22398;51.346;12.372;2023-03-11T21:21:15;7.80;;;3.63;;
36371;SDS011;22398;51.346;12.372;2023-03-11T21:26:21;7.97;;;4.05;;
36371;SDS011;22398;51.346;12.372;2023-03-11T21:31:24;8.23;;;4.50;;
36371;SDS011;22398;51.346;12.372;2023-03-11T21:41:34;13.60;;;4.07;;
36371;SDS011;22398;51.346;12.372;2023-03-11T21:46:38;9.63;;;4.47;;
36371;SDS011;22398;51.346;12.372;2023-03-11T21:51:41;9.73;;;3.90;;
36371;SDS011;22398;51.346;12.372;2023-03-11T21:56:46;9.13;;;3.05;;
36371;SDS011;22398;51.346;12.372;2023-03-11T22:01:49;18.47;;;4.10;;
36371;SDS011;22398;51.346;12.372;2023-03-11T22:06:53;9.70;;;4.38;;
36371;SDS011;22398;51.346;12.372;2023-03-11T22:11:59;11.50;;;3.10;;
36371;SDS011;22398;51.346;12.372;2023-03-11T22:17:02;8.00;;;2.83;;
36371;SDS011;22398;51.346;12.372;2023-03-11T22:22:06;8.63;;;2.97;;
36371;SDS011;22398;51.346;12.372;2023-03-11T22:27:11;8.20;;;3.35;;
36371;SDS011;22398;51.346;12.372;2023-03-11T22:32:14;6.20;;;3.47;;
36371;SDS011;22398;51.346;12.372;2023-03-11T22:37:17;7.93;;;3.13;;
36371;SDS011;22398;51.346;12.372;2023-03-11T22:42:22;7.28;;;3.25;;
36371;SDS011;22398;51.346;12.372;2023-03-11T22:47:26;9.20;;;2.57;;
36371;SDS011;22398;51.346;12.372;2023-03-11T22:52:29;7.18;;;2.47;;
36371;SDS011;22398;51.346;12.372;2023-03-11T22:57:33;8.25;;;2.97;;
36371;SDS011;22398;51.346;12.372;2023-03-11T23:02:39;7.10;;;3.35;;
36371;SDS011;22398;51.346;12.372;2023-03-11T23:07:42;6.10;;;2.55;;
36371;SDS011;22398;51.346;12.372;2023-03-11T23:12:47;9.68;;;3.88;;
36371;SDS011;22398;51.346;12.372;2023-03-11T23:17:51;6.43;;;2.30;;
36371;SDS011;22398;51.346;12.372;2023-03-11T23:22:54;7.45;;;2.47;;
36371;SDS011;22398;51.346;12.372;2023-03-11T23:27:59;11.48;;;3.30;;
36371;SDS011;22398;51.346;12.372;2023-03-11T23:33:03;6.20;;;2.95;;
36371;SDS011;22398;51.346;12.372;2023-03-11T23:38:07;7.35;;;3.03;;
36371;SDS011;22398;51.346;12.372;2023-03-11T23:43:12;14.90;;;4.18;;
36371;SDS011;22398;51.346;12.372;2023-03-11T23:48:15;8.87;;;3.30;;
36371;SDS011;22398;51.346;12.372;2023-03-11T23:53:19;8.00;;;3.97;;
36371;SDS011;22398;51.346;12.372;2023-03-11T23:58:25;8.07;;;3.83;;
